Time;durP1;ratioP1;P1;durP2;ratioP2;P2;SDS_P1;SDS_P2;PMS_P1;PMS_P2;Temp;Humidity;BMP_temperature;BMP_pressure;BME280_temperature;BME280_humidity;BME280_pressure;Samples;Min_cycle;Max_cycle;Signal;HPM_P1;HPM_P2
2022/03/12 00:01:47;;;;;;;15.00;7.30;;;;;;;-2.38;58.91;95678.84;5030328;28;20045;-71
2022/03/12 00:04:14;;;;;;;13.20;6.45;;;;;;;-2.45;58.81;95675.41;5030397;28;20049;-71
2022/03/12 00:06:39;;;;;;;16.60;7.55;;;;;;;-2.70;61.44;95673.19;5049029;28;20048;-71
2022/03/12 00:09:05;;;;;;;19.10;7.30;;;;;;;-2.71;60.42;95675.94;5050188;28;20137;-71
2022/03/12 00:11:34;;;;;;;15.75;7.63;;;;;;;-2.49;58.84;95684.47;5044766;28;20091;-71
2022/03/12 00:14:02;;;;;;;17.63;7.50;;;;;;;-2.54;58.62;95686.78;5038840;28;20050;-71
2022/03/12 00:16:29;;;;;;;14.13;6.20;;;;;;;-2.62;60.25;95675.63;5030133;28;20507;-71
2022/03/12 00:18:59;;;;;;;19.27;6.88;;;;;;;-2.65;59.40;95678.56;5028829;28;20442;-71
2022/03/12 00:21:27;;;;;;;18.08;6.82;;;;;;;-2.72;59.89;95680.28;5034998;28;20045;-71
2022/03/12 00:23:55;;;;;;;13.07;6.93;;;;;;;-2.72;59.07;95680.28;5037937;28;20056;-71
2022/03/12 00:26:23;;;;;;;16.27;6.57;;;;;;;-2.72;59.11;95688.00;5045468;28;20052;-71
2022/03/12 00:28:50;;;;;;;15.38;7.15;;;;;;;-2.74;59.82;95684.81;5071314;28;20041;-71
2022/03/12 00:31:16;;;;;;;15.00;6.22;;;;;;;-2.65;58.98;95691.44;5043519;28;20045;-71
2022/03/12 00:33:42;;;;;;;23.38;7.18;;;;;;;-2.72;58.64;95689.78;5045742;28;20044;-71
2022/03/12 00:36:08;;;;;;;13.55;6.45;;;;;;;-2.74;59.06;95681.44;5043822;28;20387;-71
2022/03/12 00:38:35;;;;;;;14.57;6.78;;;;;;;-2.77;58.57;95680.03;5046422;28;20047;-71
2022/03/12 00:41:02;;;;;;;13.57;6.15;;;;;;;-2.62;58.47;95680.78;5073307;28;20048;-71
2022/03/12 00:43:27;;;;;;;20.02;6.70;;;;;;;-2.78;58.38;95686.16;5039532;28;20068;-70
2022/03/12 00:45:52;;;;;;;16.35;6.32;;;;;;;-2.83;57.88;95688.47;5040010;28;20111;-70
2022/03/12 00:48:18;;;;;;;17.80;7.00;;;;;;;-2.69;58.90;95700.50;5037901;28;20037;-71
2022/03/12 00:50:44;;;;;;;16.25;7.18;;;;;;;-2.71;59.31;95707.63;5041592;28;20102;-71
2022/03/12 00:53:09;;;;;;;13.48;6.63;;;;;;;-2.71;58.88;95705.06;5052307;28;20486;-71
2022/03/12 00:55:36;;;;;;;20.00;6.95;;;;;;;-2.70;59.00;95714.41;5029097;28;20107;-71
2022/03/12 00:58:02;;;;;;;12.27;6.40;;;;;;;-2.66;58.98;95710.47;5043312;28;20064;-70
2022/03/12 01:00:29;;;;;;;14.07;6.60;;;;;;;-2.81;58.19;95707.13;5041179;28;20045;-70
2022/03/12 01:02:54;;;;;;;15.73;6.22;;;;;;;-2.75;58.83;95711.56;5029110;28;20042;-71
2022/03/12 01:05:40;;;;;;;16.33;6.80;;;;;;;-2.65;58.55;95712.06;5039880;28;20064;-70
2022/03/12 01:08:06;;;;;;;15.80;6.72;;;;;;;-2.81;59.96;95712.28;5030723;28;20706;-70
2022/03/12 01:10:32;;;;;;;17.42;6.93;;;;;;;-3.05;60.49;95706.44;5037210;28;20037;-70
2022/03/12 01:12:57;;;;;;;15.07;6.78;;;;;;;-3.04;59.67;95713.19;5028840;28;20132;-70
2022/03/12 01:15:23;;;;;;;19.60;7.35;;;;;;;-2.99;60.48;95710.88;5045863;28;20505;-70
2022/03/12 01:17:49;;;;;;;14.60;6.47;;;;;;;-2.88;59.61;95711.41;5043085;28;20033;-70
2022/03/12 01:20:19;;;;;;;14.70;6.07;;;;;;;-3.05;61.00;95703.84;5041946;28;20049;-71
2022/03/12 01:22:45;;;;;;;13.45;6.68;;;;;;;-3.04;60.37;95708.03;5032690;28;20053;-71
2022/03/12 01:25:10;;;;;;;15.23;6.18;;;;;;;-2.91;59.64;95711.78;5041884;28;20045;-71
2022/03/12 01:27:36;;;;;;;13.00;6.32;;;;;;;-2.84;59.62;95707.50;5043593;28;20037;-71
2022/03/12 01:30:04;;;;;;;14.82;6.70;;;;;;;-2.79;59.92;95705.97;5038281;28;20167;-70
2022/03/12 01:32:30;;;;;;;15.15;6.55;;;;;;;-2.91;59.65;95701.47;5035471;28;20042;-70
2022/03/12 01:34:55;;;;;;;14.88;5.90;;;;;;;-2.92;60.27;95710.94;5038590;28;20053;-71
2022/03/12 01:37:21;;;;;;;13.52;6.35;;;;;;;-2.84;60.76;95697.19;5036735;28;20403;-70
2022/03/12 01:39:47;;;;;;;14.05;6.35;;;;;;;-2.87;60.47;95702.72;5047129;28;20046;-70
2022/03/12 01:42:14;;;;;;;14.73;6.50;;;;;;;-3.11;60.57;95707.16;5032992;28;20045;-70
2022/03/12 01:44:41;;;;;;;13.88;6.88;;;;;;;-3.35;62.14;95711.59;5041031;28;20794;-70
2022/03/12 01:47:09;;;;;;;17.17;6.70;;;;;;;-3.49;61.66;95704.69;5049466;28;20041;-70
2022/03/12 01:49:35;;;;;;;16.27;6.75;;;;;;;-3.43;62.09;95709.09;5032920;28;20533;-70
2022/03/12 01:52:02;;;;;;;14.38;6.72;;;;;;;-3.33;62.04;95694.19;5044766;28;20039;-70
2022/03/12 01:54:29;;;;;;;17.50;7.13;;;;;;;-3.13;61.60;95691.88;5034813;28;20041;-70
2022/03/12 01:56:57;;;;;;;15.43;6.97;;;;;;;-3.14;60.79;95697.22;5039619;28;20633;-70
2022/03/12 01:59:23;;;;;;;13.98;6.00;;;;;;;-3.20;61.15;95703.09;5038593;28;20065;-70
2022/03/12 02:01:52;;;;;;;16.52;6.78;;;;;;;-3.15;60.87;95700.75;5045731;28;20048;-70
2022/03/12 02:04:22;;;;;;;15.40;6.82;;;;;;;-3.18;61.21;95698.56;5039859;28;20127;-70
2022/03/12 02:06:50;;;;;;;15.98;6.72;;;;;;;-3.26;61.55;95698.63;5046659;28;20436;-71
2022/03/12 02:09:17;;;;;;;15.88;6.40;;;;;;;-3.20;61.80;95701.31;5036900;28;20124;-70
2022/03/12 02:11:49;;;;;;;14.15;6.45;;;;;;;-3.20;61.27;95697.94;5061423;28;20048;-70
2022/03/12 02:14:20;;;;;;;17.55;6.65;;;;;;;-3.27;61.70;95697.06;5039400;28;20413;-71
2022/03/12 02:16:52;;;;;;;16.02;6.93;;;;;;;-3.24;61.72;95696.69;5050520;28;20041;-70
2022/03/12 02:19:19;;;;;;;13.70;6.43;;;;;;;-3.25;61.34;95700.22;5038839;28;20116;-71
2022/03/12 02:21:52;;;;;;;15.45;6.97;;;;;;;-3.62;64.55;95691.59;5040998;28;20052;-70
2022/03/12 02:24:19;;;;;;;19.05;7.43;;;;;;;-3.85;64.87;95695.00;5060002;28;20041;-70
2022/03/12 02:26:46;;;;;;;14.05;6.15;;;;;;;-3.55;63.71;95700.22;5048529;28;20780;-70
2022/03/12 02:29:18;;;;;;;16.52;7.22;;;;;;;-3.64;64.11;95701.28;5045290;28;20041;-70
2022/03/12 02:31:48;;;;;;;15.80;6.90;;;;;;;-3.68;63.21;95706.78;5051068;28;20122;-70
2022/03/12 02:34:21;;;;;;;15.30;6.93;;;;;;;-3.57;63.07;95697.81;5036522;28;20521;-70
2022/03/12 02:36:49;;;;;;;13.55;6.57;;;;;;;-3.53;62.71;95704.22;5036086;28;20048;-70
2022/03/12 02:39:16;;;;;;;16.00;7.47;;;;;;;-3.59;63.04;95694.63;5038342;28;20712;-70
2022/03/12 02:41:42;;;;;;;16.75;7.13;;;;;;;-3.56;63.39;95703.75;5036693;28;20522;-69
2022/03/12 02:44:16;;;;;;;16.02;6.80;;;;;;;-3.63;62.75;95713.16;5033060;28;20171;-70
2022/03/12 02:46:42;;;;;;;16.50;7.35;;;;;;;-3.55;61.96;95716.47;5046658;28;20099;-70
2022/03/12 02:49:07;;;;;;;12.55;6.10;;;;;;;-3.50;62.82;95715.94;5049481;28;20049;-69
2022/03/12 02:51:34;;;;;;;14.05;6.78;;;;;;;-3.54;63.14;95717.25;5033790;28;20052;-70
2022/03/12 02:54:00;;;;;;;15.57;6.75;;;;;;;-3.59;62.77;95714.41;5030833;28;20041;-70
2022/03/12 02:56:28;;;;;;;18.88;6.90;;;;;;;-3.61;63.62;95716.34;5043282;28;20037;-70
2022/03/12 02:58:54;;;;;;;16.20;7.25;;;;;;;-3.67;63.86;95713.50;5050594;28;20045;-69
2022/03/12 03:01:22;;;;;;;15.32;6.88;;;;;;;-3.75;64.11;95711.03;5049357;28;20041;-70
2022/03/12 03:03:48;;;;;;;15.05;7.10;;;;;;;-3.62;64.08;95725.03;5050662;28;20105;-70
2022/03/12 03:06:14;;;;;;;19.88;7.13;;;;;;;-3.61;64.36;95727.44;5031559;28;20458;-70
2022/03/12 03:08:41;;;;;;;12.15;6.40;;;;;;;-3.62;64.82;95719.91;5046890;28;20048;-70
2022/03/12 03:11:11;;;;;;;15.35;7.00;;;;;;;-3.68;64.61;95711.91;5049463;28;20060;-70
2022/03/12 03:13:39;;;;;;;14.32;6.40;;;;;;;-3.69;65.12;95715.47;5039897;28;20053;-70
2022/03/12 03:16:22;;;;;;;14.70;7.15;;;;;;;-3.69;65.46;95730.91;5042563;28;20048;-69
2022/03/12 03:18:53;;;;;;;12.50;6.30;;;;;;;-3.68;65.73;95732.50;5045371;28;20049;-70
2022/03/12 03:21:28;;;;;;;15.35;6.00;;;;;;;-3.69;65.60;95730.91;5048141;28;20033;-69
2022/03/12 03:23:54;;;;;;;16.17;6.63;;;;;;;-3.69;65.68;95723.19;5051180;28;20054;-69
2022/03/12 03:26:49;;;;;;;18.75;7.10;;;;;;;-3.77;65.50;95717.31;5036089;28;20415;-69
2022/03/12 03:29:15;;;;;;;16.75;6.03;;;;;;;-3.73;66.14;95723.72;5038640;28;20033;-69
2022/03/12 03:31:41;;;;;;;16.77;6.93;;;;;;;-3.77;66.03;95723.25;5050461;28;20549;-69
2022/03/12 03:34:07;;;;;;;15.73;6.57;;;;;;;-3.85;66.06;95720.72;5034103;28;20414;-69
2022/03/12 03:36:33;;;;;;;14.00;6.68;;;;;;;-3.90;66.33;95723.03;5046024;28;20045;-69
2022/03/12 03:38:59;;;;;;;20.67;7.45;;;;;;;-3.95;66.08;95725.31;5053154;28;20044;-69
2022/03/12 03:41:25;;;;;;;15.63;6.85;;;;;;;-3.94;66.25;95726.94;5049365;28;20052;-69
2022/03/12 03:43:51;;;;;;;19.60;7.53;;;;;;;-3.98;65.90;95735.94;5035247;28;20054;-69
2022/03/12 03:46:22;;;;;;;15.80;6.97;;;;;;;-3.96;65.89;95734.03;5040734;28;20103;-69
2022/03/12 03:48:51;;;;;;;15.68;6.93;;;;;;;-4.05;66.49;95741.78;5042575;28;20550;-69
2022/03/12 03:51:18;;;;;;;15.93;7.05;;;;;;;-4.11;67.27;95742.44;5041652;28;20102;-69
2022/03/12 03:53:44;;;;;;;12.05;6.65;;;;;;;-4.07;66.78;95743.72;5045174;28;20049;-69
2022/03/12 03:56:10;;;;;;;14.68;6.60;;;;;;;-4.13;66.69;95749.56;5031051;28;20045;-69
2022/03/12 03:58:37;;;;;;;25.00;7.68;;;;;;;-3.90;66.92;95738.47;5030150;28;20069;-69
2022/03/12 04:01:11;;;;;;;14.70;6.60;;;;;;;-4.06;66.94;95732.47;5042179;28;20041;-69
2022/03/12 04:03:38;;;;;;;18.00;7.57;;;;;;;-3.94;67.54;95722.56;5045075;28;20055;-69
2022/03/12 04:06:05;;;;;;;16.00;7.65;;;;;;;-3.93;67.34;95726.75;5039828;28;20099;-69
2022/03/12 04:08:33;;;;;;;17.08;7.72;;;;;;;-4.17;69.32;95732.88;5038822;28;20045;-69
2022/03/12 04:11:01;;;;;;;15.45;7.10;;;;;;;-4.33;70.63;95733.00;5040271;28;20643;-69
2022/03/12 04:13:27;;;;;;;14.50;6.65;;;;;;;-4.37;69.67;95733.34;5032847;28;20056;-69
2022/03/12 04:15:52;;;;;;;18.35;7.03;;;;;;;-4.20;68.88;95733.22;5038135;28;20041;-69
2022/03/12 04:18:21;;;;;;;18.00;7.40;;;;;;;-4.25;69.93;95725.19;5038457;28;20048;-69
2022/03/12 04:20:48;;;;;;;15.80;7.40;;;;;;;-4.30;69.12;95727.50;5046914;28;20041;-69
2022/03/12 04:23:20;;;;;;;20.55;7.07;;;;;;;-4.17;69.61;95727.72;5030466;28;20037;-69
2022/03/12 04:25:51;;;;;;;15.10;6.88;;;;;;;-4.03;69.39;95728.75;5029045;28;20049;-69
2022/03/12 04:28:18;;;;;;;17.58;7.47;;;;;;;-4.12;69.15;95730.59;5041451;28;20045;-69
2022/03/12 04:30:44;;;;;;;17.70;6.82;;;;;;;-4.54;71.87;95726.66;5042587;28;20528;-69
2022/03/12 04:33:11;;;;;;;17.17;7.50;;;;;;;-4.51;71.95;95726.34;5049966;28;20043;-69
2022/03/12 04:35:38;;;;;;;17.25;7.80;;;;;;;-4.46;70.97;95729.19;5046523;28;20037;-68
2022/03/12 04:38:03;;;;;;;17.30;6.95;;;;;;;-4.44;71.21;95727.28;5047951;28;20055;-69
2022/03/12 04:40:29;;;;;;;15.73;6.95;;;;;;;-4.23;70.15;95733.56;5040458;28;20108;-69
2022/03/12 04:42:55;;;;;;;22.63;6.80;;;;;;;-4.18;69.15;95731.25;5028944;28;20049;-69
2022/03/12 04:45:26;;;;;;;15.20;7.18;;;;;;;-4.18;68.58;95726.13;5037641;28;20052;-69
2022/03/12 04:47:53;;;;;;;17.98;8.00;;;;;;;-4.31;70.42;95731.03;5049192;28;20111;-69
2022/03/12 04:50:20;;;;;;;19.10;7.88;;;;;;;-4.35;71.20;95725.44;5043089;28;20491;-69
2022/03/12 04:52:48;;;;;;;12.70;7.15;;;;;;;-4.29;70.19;95732.47;5037165;28;20044;-69
2022/03/12 04:55:17;;;;;;;19.05;7.65;;;;;;;-4.35;70.83;95736.53;5044586;28;20522;-69
2022/03/12 04:57:43;;;;;;;18.90;7.78;;;;;;;-4.35;70.87;95733.94;5049150;28;20410;-69
2022/03/12 05:00:25;;;;;;;18.58;7.70;;;;;;;-4.15;69.02;95733.50;5032872;28;20067;-69
2022/03/12 05:03:01;;;;;;;22.00;6.97;;;;;;;-4.05;69.31;95741.78;5043989;28;20494;-69
2022/03/12 05:05:27;;;;;;;17.10;6.72;;;;;;;-4.14;69.85;95740.22;5029208;28;20048;-69
2022/03/12 05:07:54;;;;;;;16.35;7.22;;;;;;;-4.25;70.36;95740.63;5040986;28;20041;-69
2022/03/12 05:10:22;;;;;;;17.35;7.35;;;;;;;-4.38;70.99;95739.44;5046470;28;20041;-69
2022/03/12 05:12:50;;;;;;;13.75;6.68;;;;;;;-4.19;69.73;95742.53;5028085;28;20037;-69
2022/03/12 05:15:18;;;;;;;14.85;7.20;;;;;;;-4.31;70.87;95746.44;5044740;28;20045;-69
2022/03/12 05:17:48;;;;;;;16.23;6.82;;;;;;;-4.23;70.79;95746.41;5052904;28;20560;-69
2022/03/12 05:20:28;;;;;;;16.77;6.82;;;;;;;-4.27;69.44;95743.38;5029250;28;20480;-69
2022/03/12 05:22:54;;;;;;;18.55;7.22;;;;;;;-4.36;70.13;95760.59;5028164;28;20040;-70
2022/03/12 05:25:20;;;;;;;16.92;7.75;;;;;;;-4.41;69.41;95760.31;5028475;28;20038;-70
2022/03/12 05:27:53;;;;;;;18.38;7.50;;;;;;;-4.21;69.40;95757.31;5037179;28;20089;-67
2022/03/12 05:30:20;;;;;;;15.15;7.72;;;;;;;-4.31;69.74;95765.25;5034030;28;20041;-68
2022/03/12 05:32:46;;;;;;;16.23;7.63;;;;;;;-4.45;69.59;95771.91;5046904;28;20076;-68
2022/03/12 05:35:12;;;;;;;16.58;7.90;;;;;;;-4.26;69.84;95764.75;5050968;28;20033;-68
2022/03/12 05:37:40;;;;;;;15.90;7.18;;;;;;;-4.22;69.64;95761.66;5047259;28;20077;-68
2022/03/12 05:40:09;;;;;;;17.83;7.38;;;;;;;-4.31;69.01;95767.00;5040218;28;20045;-68
2022/03/12 05:42:35;;;;;;;16.52;6.95;;;;;;;-4.35;68.98;95767.34;5029415;28;20042;-68
2022/03/12 05:45:09;;;;;;;18.65;6.55;;;;;;;-4.23;69.49;95764.41;5039351;28;20448;-68
2022/03/12 05:47:41;;;;;;;12.85;6.75;;;;;;;-4.17;68.95;95768.84;5048427;28;20052;-69
2022/03/12 05:50:12;;;;;;;14.77;7.28;;;;;;;-4.05;68.42;95772.63;5034418;28;20044;-68
2022/03/12 05:52:39;;;;;;;21.02;7.53;;;;;;;-4.06;68.60;95776.16;5049282;28;20044;-68
2022/03/12 05:55:08;;;;;;;20.35;7.50;;;;;;;-4.13;68.10;95770.13;5040861;28;20109;-68
2022/03/12 05:57:34;;;;;;;14.60;7.15;;;;;;;-4.06;67.93;95786.44;5048473;28;20045;-69
2022/03/12 06:00:02;;;;;;;16.15;7.28;;;;;;;-4.04;68.03;95784.53;5042491;28;20041;-68
2022/03/12 06:02:29;;;;;;;15.77;7.15;;;;;;;-4.08;68.85;95788.41;5046635;28;20048;-68
2022/03/12 06:04:58;;;;;;;19.02;7.45;;;;;;;-4.08;68.17;95788.41;5042314;28;20041;-68
2022/03/12 06:07:24;;;;;;;15.27;7.38;;;;;;;-4.02;68.37;95798.00;5045834;28;20589;-68
2022/03/12 06:09:50;;;;;;;20.63;8.10;;;;;;;-3.94;68.45;95793.78;5090996;28;20041;-68
2022/03/12 06:12:17;;;;;;;17.17;7.07;;;;;;;-3.91;68.10;95799.34;5048901;28;20132;-68
2022/03/12 06:14:43;;;;;;;16.90;6.85;;;;;;;-3.92;69.01;95796.97;5043316;28;20103;-70
2022/03/12 06:17:08;;;;;;;16.30;7.78;;;;;;;-3.86;68.51;95802.22;5049652;28;20045;-69
2022/03/12 06:19:34;;;;;;;17.20;6.80;;;;;;;-3.87;67.79;95795.47;5046879;28;20041;-70
2022/03/12 06:22:00;;;;;;;19.90;7.75;;;;;;;-3.76;67.68;95799.44;5045142;28;20107;-70
2022/03/12 06:24:26;;;;;;;19.02;7.22;;;;;;;-3.69;67.56;95808.06;5049751;28;20079;-70
2022/03/12 06:26:51;;;;;;;19.65;8.30;;;;;;;-3.73;67.75;95811.94;5042492;28;20044;-71
2022/03/12 06:29:17;;;;;;;16.27;7.57;;;;;;;-3.64;67.01;95814.47;5044117;28;20045;-71
2022/03/12 06:31:43;;;;;;;19.17;8.00;;;;;;;-3.58;67.03;95813.75;5044562;28;20428;-70
2022/03/12 06:34:12;;;;;;;17.20;7.43;;;;;;;-3.53;66.66;95811.47;5041139;28;20049;-69
2022/03/12 06:36:39;;;;;;;17.05;7.63;;;;;;;-3.50;66.98;95813.72;5049500;28;20132;-69
2022/03/12 06:39:06;;;;;;;21.63;8.18;;;;;;;-3.64;68.53;95819.59;5048064;28;20120;-70
2022/03/12 06:41:36;;;;;;;23.02;7.75;;;;;;;-3.56;68.02;95822.09;5043354;28;20038;-69
2022/03/12 06:44:06;;;;;;;16.92;7.40;;;;;;;-3.38;67.17;95825.16;5043921;28;20045;-69
2022/03/12 06:46:36;;;;;;;18.95;8.18;;;;;;;-3.37;66.31;95826.78;5044151;28;20037;-69
2022/03/12 06:49:04;;;;;;;20.73;7.43;;;;;;;-3.28;67.63;95829.28;5049054;28;20041;-69
2022/03/12 06:51:31;;;;;;;19.52;8.30;;;;;;;-3.12;66.50;95829.13;5041648;28;20403;-69
2022/03/12 06:53:57;;;;;;;17.02;7.55;;;;;;;-2.97;66.81;95827.38;5049805;28;20524;-76
2022/03/12 06:56:23;;;;;;;17.98;8.00;;;;;;;-2.80;64.97;95824.66;5048339;28;20044;-68
2022/03/12 06:58:48;;;;;;;16.90;8.18;;;;;;;-2.74;65.28;95831.66;5041935;28;20044;-68
2022/03/12 07:01:13;;;;;;;17.05;7.45;;;;;;;-2.72;64.67;95832.28;5043548;28;20120;-68
2022/03/12 07:03:39;;;;;;;17.27;8.30;;;;;;;-2.68;64.85;95833.50;5037657;28;20988;-69
2022/03/12 07:06:06;;;;;;;20.15;8.38;;;;;;;-2.56;65.00;95836.44;5042752;28;20042;-69
2022/03/12 07:08:32;;;;;;;19.25;8.30;;;;;;;-2.54;65.55;95836.25;5048573;28;20597;-71
2022/03/12 07:10:58;;;;;;;21.23;8.00;;;;;;;-2.34;64.49;95837.31;5043381;28;20045;-70
2022/03/12 07:13:23;;;;;;;17.85;7.63;;;;;;;-2.40;64.84;95835.44;5032180;28;20041;-69
2022/03/12 07:15:50;;;;;;;20.45;7.65;;;;;;;-2.34;64.63;95842.47;5037774;28;20041;-69
2022/03/12 07:18:16;;;;;;;17.40;7.88;;;;;;;-2.20;64.31;95842.63;5042510;28;20099;-72
2022/03/12 07:20:42;;;;;;;18.05;7.78;;;;;;;-2.07;64.38;95842.78;5031803;28;20045;-69
2022/03/12 07:23:07;;;;;;;20.33;8.70;;;;;;;-1.88;63.75;95843.16;5030662;28;20730;-70
2022/03/12 07:25:34;;;;;;;21.98;8.57;;;;;;;-1.79;62.42;95839.50;5036058;28;20067;-72
2022/03/12 07:28:00;;;;;;;18.73;8.13;;;;;;;-1.65;61.97;95828.34;5041697;28;20049;-70
2022/03/12 07:30:26;;;;;;;20.27;8.70;;;;;;;-1.47;62.49;95832.25;5044538;28;20041;-69
2022/03/12 07:32:51;;;;;;;16.30;7.95;;;;;;;-1.36;62.16;95829.19;5044648;28;20065;-71
2022/03/12 07:35:18;;;;;;;19.90;8.45;;;;;;;-1.22;60.84;95830.09;5038253;28;20494;-72
2022/03/12 07:37:45;;;;;;;19.60;7.78;;;;;;;-1.11;60.58;95833.94;5048423;28;20462;-71
2022/03/12 07:40:13;;;;;;;21.38;9.05;;;;;;;-1.05;60.75;95840.94;5050350;28;20045;-69
2022/03/12 07:42:39;;;;;;;20.90;8.38;;;;;;;-0.88;60.62;95837.09;5037513;28;20049;-69
2022/03/12 07:45:06;;;;;;;17.83;8.07;;;;;;;-0.66;60.00;95839.59;5040349;28;20041;-69
2022/03/12 07:47:33;;;;;;;21.45;8.75;;;;;;;-0.56;59.46;95840.06;5046305;28;20040;-69
2022/03/12 07:49:58;;;;;;;20.80;9.10;;;;;;;-0.57;60.47;95833.28;5044265;28;20116;-70
2022/03/12 07:52:24;;;;;;;21.40;9.13;;;;;;;-0.51;59.61;95830.94;5046550;28;20123;-69
2022/03/12 07:54:49;;;;;;;20.30;8.75;;;;;;;-0.57;60.94;95837.66;5032590;28;20148;-70
2022/03/12 07:57:16;;;;;;;20.77;9.15;;;;;;;-0.60;60.20;95838.84;5032422;28;20427;-72
2022/03/12 07:59:42;;;;;;;19.35;8.88;;;;;;;-0.40;60.16;95832.97;5047142;28;20047;-68
2022/03/12 08:02:07;;;;;;;20.45;9.35;;;;;;;-0.19;59.16;95825.13;5048371;28;20040;-68
2022/03/12 08:04:33;;;;;;;22.33;9.85;;;;;;;-0.04;58.87;95827.53;5049479;28;20052;-68
2022/03/12 08:07:02;;;;;;;25.52;9.35;;;;;;;-0.29;59.97;95835.00;5047533;28;20064;-68
2022/03/12 08:09:32;;;;;;;22.70;9.88;;;;;;;-0.49;61.24;95834.91;5028938;28;20049;-68
2022/03/12 08:11:58;;;;;;;20.02;10.07;;;;;;;-0.49;61.54;95831.53;5028969;28;20045;-68
2022/03/12 08:14:25;;;;;;;26.70;9.80;;;;;;;-0.51;62.07;95830.94;5033744;28;20041;-68
2022/03/12 08:16:52;;;;;;;27.35;10.43;;;;;;;-0.43;62.05;95838.50;5039115;28;20502;-69
2022/03/12 08:19:19;;;;;;;29.95;10.65;;;;;;;-0.32;62.16;95840.56;5036177;28;20086;-68
2022/03/12 08:21:45;;;;;;;23.83;10.45;;;;;;;-0.16;60.41;95828.28;5037337;28;20471;-68
2022/03/12 08:24:15;;;;;;;28.10;10.40;;;;;;;-0.12;60.18;95830.28;5042914;28;20045;-69
2022/03/12 08:26:42;;;;;;;21.02;9.90;;;;;;;0.47;58.65;95828.81;5063624;28;20072;-69
2022/03/12 08:29:13;;;;;;;27.83;11.82;;;;;;;0.42;59.53;95831.22;5041661;28;20108;-70
2022/03/12 08:31:40;;;;;;;23.83;11.50;;;;;;;0.36;59.91;95829.44;5046264;28;20045;-70
2022/03/12 08:34:11;;;;;;;25.20;10.68;;;;;;;0.26;61.03;95832.41;5061152;28;20797;-70
2022/03/12 08:36:36;;;;;;;26.00;11.18;;;;;;;0.20;60.92;95829.78;5040228;28;20383;-69
2022/03/12 08:39:03;;;;;;;24.13;11.63;;;;;;;0.37;60.85;95833.59;5036727;28;20094;-68
2022/03/12 08:41:28;;;;;;;25.33;10.57;;;;;;;0.49;60.75;95829.44;5045007;28;20487;-68
2022/03/12 08:43:54;;;;;;;27.70;11.52;;;;;;;0.51;59.94;95830.03;5040968;28;20037;-69
2022/03/12 08:46:20;;;;;;;21.85;10.35;;;;;;;0.54;60.43;95828.06;5046123;28;20110;-69
2022/03/12 08:48:45;;;;;;;23.90;11.45;;;;;;;0.67;60.18;95822.88;5046030;28;20524;-69
2022/03/12 08:51:11;;;;;;;23.38;11.63;;;;;;;1.11;58.34;95824.06;5035676;28;20050;-69
2022/03/12 08:53:38;;;;;;;25.33;11.68;;;;;;;1.33;57.73;95821.22;5031128;28;20392;-69
2022/03/12 08:56:04;;;;;;;29.25;12.15;;;;;;;1.29;57.88;95820.03;5029860;28;20698;-69
2022/03/12 08:58:31;;;;;;;25.63;11.48;;;;;;;1.35;57.38;95816.63;5032135;28;20430;-69
2022/03/12 09:01:02;;;;;;;26.98;11.68;;;;;;;1.42;57.59;95825.19;5031138;28;20064;-71
2022/03/12 09:03:30;;;;;;;27.45;12.25;;;;;;;1.50;57.30;95822.38;5031651;28;20069;-70
2022/03/12 09:05:56;;;;;;;26.40;11.85;;;;;;;1.56;58.10;95826.75;5041537;28;20099;-70
2022/03/12 09:08:21;;;;;;;25.10;11.90;;;;;;;1.68;57.20;95833.91;5044783;28;20037;-71
2022/03/12 09:10:47;;;;;;;25.75;11.82;;;;;;;1.93;56.97;95820.25;5049525;28;20132;-72
2022/03/12 09:13:14;;;;;;;26.83;11.20;;;;;;;2.06;56.53;95830.56;5042899;28;20052;-71
2022/03/12 09:15:41;;;;;;;26.77;12.57;;;;;;;2.13;56.49;95826.13;5044510;28;20053;-71
2022/03/12 09:18:08;;;;;;;27.08;12.10;;;;;;;2.22;56.56;95819.69;5032945;28;20715;-71
2022/03/12 09:20:38;;;;;;;30.88;12.10;;;;;;;2.18;56.01;95818.50;5035012;28;20688;-73
2022/03/12 09:23:04;;;;;;;34.03;13.63;;;;;;;2.52;55.51;95819.09;5054345;28;20094;-74
2022/03/12 09:25:30;;;;;;;24.02;11.50;;;;;;;2.95;53.93;95810.56;5040570;28;20045;-72
2022/03/12 09:27:55;;;;;;;28.20;12.32;;;;;;;3.10;53.34;95812.03;5036123;28;20061;-71
2022/03/12 09:30:21;;;;;;;25.52;11.70;;;;;;;3.46;51.89;95818.28;5033352;28;20037;-71
2022/03/12 09:32:48;;;;;;;34.90;12.10;;;;;;;3.66;51.30;95814.69;5043010;28;20045;-72
2022/03/12 09:35:14;;;;;;;33.15;12.98;;;;;;;3.79;51.47;95817.13;5047228;28;20083;-70
2022/03/12 09:37:40;;;;;;;28.92;13.27;;;;;;;3.74;51.64;95824.81;5033681;28;20045;-71
2022/03/12 09:40:07;;;;;;;28.27;12.30;;;;;;;3.97;50.26;95814.50;5039726;28;20049;-71
2022/03/12 09:42:32;;;;;;;32.03;13.23;;;;;;;4.01;51.05;95808.84;5045253;28;20135;-71
2022/03/12 09:44:59;;;;;;;29.73;12.43;;;;;;;4.11;50.80;95809.94;5044728;28;20036;-71
2022/03/12 09:47:25;;;;;;;30.38;13.10;;;;;;;4.16;50.08;95806.66;5053446;28;20037;-70
2022/03/12 09:49:51;;;;;;;28.63;13.00;;;;;;;4.24;50.24;95808.97;5045962;28;20049;-70
2022/03/12 09:52:17;;;;;;;27.63;13.65;;;;;;;4.41;49.95;95808.31;5047943;28;20043;-70
2022/03/12 09:54:44;;;;;;;27.55;13.15;;;;;;;4.56;48.84;95800.88;5050227;28;20517;-70
2022/03/12 09:57:09;;;;;;;24.90;12.38;;;;;;;4.67;49.25;95802.72;5044122;28;20041;-71
2022/03/12 09:59:35;;;;;;;27.23;13.07;;;;;;;4.78;49.34;95802.97;5043584;28;20048;-71
2022/03/12 10:02:01;;;;;;;29.77;13.43;;;;;;;5.01;48.04;95800.38;5046447;28;20049;-73
2022/03/12 10:04:27;;;;;;;22.55;12.30;;;;;;;5.31;46.65;95802.06;5079226;28;20064;-72
2022/03/12 10:06:53;;;;;;;30.25;12.77;;;;;;;5.59;47.04;95797.94;5043040;28;20075;-72
2022/03/12 10:09:19;;;;;;;29.23;14.23;;;;;;;6.02;45.91;95791.50;5042487;28;20037;-73
2022/03/12 10:11:45;;;;;;;29.42;13.90;;;;;;;6.30;44.85;95791.72;5048876;28;20456;-72
2022/03/12 10:14:11;;;;;;;25.48;12.43;;;;;;;6.64;44.11;95797.78;5043000;28;20049;-72
2022/03/12 10:16:37;;;;;;;33.92;14.07;;;;;;;6.73;43.43;95791.13;5041020;28;20049;-72
2022/03/12 10:19:03;;;;;;;26.98;12.30;;;;;;;7.25;42.52;95797.13;5050524;28;20048;-71
2022/03/12 10:21:30;;;;;;;26.77;13.07;;;;;;;8.80;39.17;95786.50;5045416;28;20041;-70
2022/03/12 10:23:57;;;;;;;25.05;12.63;;;;;;;9.56;37.06;95782.78;5055243;28;20048;-73
2022/03/12 10:26:23;;;;;;;26.08;13.00;;;;;;;9.67;36.50;95781.00;5063912;28;20052;-71
2022/03/12 10:28:48;;;;;;;29.58;14.15;;;;;;;9.84;36.43;95786.84;5050072;28;20044;-71
2022/03/12 10:31:19;;;;;;;24.08;12.45;;;;;;;10.02;36.78;95792.69;5046509;28;20065;-73
2022/03/12 10:33:45;;;;;;;25.77;13.27;;;;;;;9.89;35.90;95778.97;5043521;28;20045;-73
2022/03/12 10:36:14;;;;;;;28.00;12.95;;;;;;;9.80;36.67;95779.75;5031916;28;20053;-71
2022/03/12 10:38:48;;;;;;;22.00;12.00;;;;;;;11.06;34.51;95776.78;5039560;28;20049;-71
2022/03/12 10:41:14;;;;;;;26.83;12.85;;;;;;;10.91;35.01;95767.03;5051247;28;20551;-71
2022/03/12 10:43:46;;;;;;;23.73;12.63;;;;;;;11.53;33.69;95772.19;5042953;28;20084;-70
2022/03/12 10:46:39;;;;;;;23.40;13.45;;;;;;;11.60;33.13;95767.41;5051622;28;20045;-71
2022/03/12 10:49:05;;;;;;;22.17;12.88;;;;;;;12.44;32.20;95763.31;5040538;28;20061;-71
2022/03/12 10:51:40;;;;;;;30.95;12.63;;;;;;;12.11;32.36;95770.91;5042130;28;20056;-73
2022/03/12 10:54:08;;;;;;;23.17;12.98;;;;;;;13.26;30.69;95757.38;5039442;28;20046;-71
2022/03/12 10:56:42;;;;;;;21.80;13.15;;;;;;;12.32;31.49;95765.53;5039160;28;20094;-73
2022/03/12 10:59:16;;;;;;;25.05;13.27;;;;;;;13.14;30.78;95759.59;5043094;28;20111;-74
2022/03/12 11:01:49;;;;;;;24.95;14.15;;;;;;;12.29;31.43;95765.00;5049964;28;20041;-72
2022/03/12 11:04:22;;;;;;;24.63;13.30;;;;;;;13.52;30.23;95770.34;5044481;28;20049;-72
2022/03/12 11:06:51;;;;;;;24.35;13.27;;;;;;;13.17;30.85;95764.31;5039596;28;20045;-72
2022/03/12 11:09:30;;;;;;;24.58;13.45;;;;;;;14.02;29.15;95765.50;5063214;28;20036;-73
2022/03/12 11:11:57;;;;;;;25.35;13.35;;;;;;;14.09;29.15;95773.09;5052013;28;20040;-73
2022/03/12 11:14:23;;;;;;;22.67;13.65;;;;;;;13.71;29.84;95766.97;5046095;28;20487;-72
2022/03/12 11:16:53;;;;;;;25.45;14.10;;;;;;;13.47;29.17;95763.25;5035479;28;20033;-74
2022/03/12 11:19:37;;;;;;;26.90;14.32;;;;;;;12.90;30.65;95760.34;5050348;28;20040;-72
2022/03/12 11:22:12;;;;;;;30.77;14.38;;;;;;;13.85;29.11;95751.97;5046483;28;20037;-74
2022/03/12 11:24:46;;;;;;;26.27;13.80;;;;;;;13.66;28.77;95760.66;5040461;28;20103;-72
2022/03/12 11:27:14;;;;;;;27.67;14.05;;;;;;;13.87;28.63;95749.84;5047391;28;20417;-74